createdAt,value
2022-11-12T00:00:07.421Z,0
2022-11-12T00:03:07.417Z,0
2022-11-12T00:06:07.358Z,0
2022-11-12T00:09:07.357Z,0
2022-11-12T00:12:07.382Z,0
2022-11-12T00:15:07.363Z,0
2022-11-12T00:18:07.314Z,0
2022-11-12T00:21:07.412Z,0
2022-11-12T00:24:07.337Z,0
2022-11-12T00:27:07.329Z,0
2022-11-12T00:30:07.389Z,0
2022-11-12T00:33:07.322Z,0
2022-11-12T00:36:07.493Z,0
2022-11-12T00:39:07.421Z,0
2022-11-12T00:42:07.435Z,0
2022-11-12T00:45:07.379Z,0
2022-11-12T00:48:07.334Z,0
2022-11-12T00:51:07.414Z,0
2022-11-12T00:54:07.426Z,0
2022-11-12T00:57:07.471Z,0
2022-11-12T01:00:07.397Z,0
2022-11-12T01:03:07.334Z,0
2022-11-12T01:06:07.390Z,0
2022-11-12T01:09:07.491Z,0
2022-11-12T01:12:07.358Z,0
2022-11-12T01:15:07.330Z,0
2022-11-12T01:18:07.370Z,0
2022-11-12T01:21:07.489Z,0
2022-11-12T01:24:07.378Z,0
2022-11-12T01:27:07.332Z,0
2022-11-12T01:30:07.348Z,0
2022-11-12T01:33:07.373Z,0
2022-11-12T01:36:07.364Z,0
2022-11-12T01:39:07.497Z,0
2022-11-12T01:42:07.376Z,0
2022-11-12T01:45:07.383Z,0
2022-11-12T01:48:07.508Z,0
2022-11-12T01:51:07.326Z,0
2022-11-12T01:54:07.475Z,0
2022-11-12T01:57:07.351Z,0
2022-11-12T02:00:07.467Z,0
2022-11-12T02:03:07.342Z,0
2022-11-12T02:06:07.365Z,0
2022-11-12T02:09:07.301Z,0
2022-11-12T02:12:07.420Z,0
2022-11-12T02:15:07.284Z,0
2022-11-12T02:18:07.314Z,0
2022-11-12T02:21:07.417Z,0
2022-11-12T02:24:07.392Z,0
2022-11-12T02:27:07.380Z,0
2022-11-12T02:30:07.376Z,0
2022-11-12T02:33:07.388Z,0
2022-11-12T02:36:07.389Z,0
2022-11-12T02:39:07.337Z,0
2022-11-12T02:42:07.361Z,0
2022-11-12T02:45:07.389Z,0
2022-11-12T02:48:07.399Z,0
2022-11-12T02:51:07.319Z,0
2022-11-12T02:54:07.416Z,0
2022-11-12T02:57:07.368Z,0
2022-11-12T03:00:07.461Z,0
2022-11-12T03:03:07.321Z,0
2022-11-12T03:06:07.388Z,0
2022-11-12T03:09:07.374Z,0
2022-11-12T03:12:07.421Z,0
2022-11-12T03:15:07.482Z,0
2022-11-12T03:18:07.377Z,0
2022-11-12T03:21:07.293Z,0
2022-11-12T03:24:07.361Z,0
2022-11-12T03:27:07.332Z,0
2022-11-12T03:30:07.376Z,0
2022-11-12T03:33:07.319Z,0
2022-11-12T03:36:07.357Z,0
2022-11-12T03:39:07.315Z,0
2022-11-12T03:42:07.352Z,0
2022-11-12T03:45:07.382Z,0
2022-11-12T03:48:07.378Z,0
2022-11-12T03:51:07.359Z,0
2022-11-12T03:54:07.321Z,0
2022-11-12T03:57:07.346Z,0
2022-11-12T04:00:07.451Z,0
2022-11-12T04:03:07.395Z,0
2022-11-12T04:06:07.340Z,0
2022-11-12T04:09:07.335Z,0
2022-11-12T04:12:07.355Z,0
2022-11-12T04:15:07.379Z,0
2022-11-12T04:18:07.365Z,0
2022-11-12T04:21:07.496Z,0
2022-11-12T04:24:07.365Z,0
2022-11-12T04:27:07.376Z,0
2022-11-12T04:30:07.360Z,0
2022-11-12T04:33:07.364Z,0
2022-11-12T04:36:07.359Z,0
2022-11-12T04:39:07.364Z,0
2022-11-12T04:42:07.403Z,0
2022-11-12T04:45:07.390Z,0
2022-11-12T04:48:07.327Z,0
2022-11-12T04:51:07.367Z,0
2022-11-12T04:54:07.357Z,0
2022-11-12T04:57:07.314Z,0
2022-11-12T05:00:07.495Z,0
2022-11-12T05:03:07.338Z,0
2022-11-12T05:06:07.365Z,0
2022-11-12T05:09:07.343Z,0
2022-11-12T05:12:07.416Z,0
2022-11-12T05:15:07.382Z,0
2022-11-12T05:18:07.352Z,0
2022-11-12T05:21:07.321Z,0
2022-11-12T05:24:07.358Z,0
2022-11-12T05:27:07.321Z,0
2022-11-12T05:30:07.336Z,0
2022-11-12T05:33:07.372Z,0
2022-11-12T05:36:07.317Z,0
2022-11-12T05:39:07.424Z,0
2022-11-12T05:42:21.182Z,0
2022-11-12T05:45:07.290Z,0
2022-11-12T05:48:07.362Z,0
2022-11-12T05:51:20.801Z,0
2022-11-12T05:54:07.346Z,0
2022-11-12T05:57:07.300Z,0
2022-11-12T06:00:07.389Z,3
2022-11-12T06:03:07.538Z,3
2022-11-12T06:06:07.384Z,7
2022-11-12T06:09:07.365Z,10
2022-11-12T06:12:07.394Z,17
2022-11-12T06:15:07.424Z,30
2022-11-12T06:18:07.324Z,50
2022-11-12T06:21:07.779Z,73
2022-11-12T06:24:07.312Z,103
2022-11-12T06:27:07.394Z,157
2022-11-12T06:30:07.499Z,223
2022-11-12T06:33:07.332Z,300
2022-11-12T06:36:07.787Z,390
2022-11-12T06:39:07.414Z,487
2022-11-12T06:42:07.378Z,623
2022-11-12T06:45:07.428Z,770
2022-11-12T06:48:07.476Z,937
2022-11-12T06:51:07.370Z,1120
2022-11-12T06:54:07.407Z,1290
2022-11-12T06:57:07.456Z,1487
2022-11-12T07:00:07.452Z,1667
2022-11-12T07:03:07.383Z,1803
2022-11-12T07:06:07.426Z,1960
2022-11-12T07:09:07.393Z,2123
2022-11-12T07:12:07.413Z,2367
2022-11-12T07:15:07.441Z,2590
2022-11-12T07:18:07.469Z,2707
2022-11-12T07:21:07.420Z,2707
2022-11-12T07:24:07.447Z,2650
2022-11-12T07:27:07.361Z,2717
2022-11-12T07:30:07.473Z,2807
2022-11-12T07:33:07.391Z,2860
2022-11-12T07:36:07.396Z,2893
2022-11-12T07:39:07.394Z,3000
2022-11-12T07:42:07.510Z,3233
2022-11-12T07:45:07.470Z,3500
2022-11-12T07:48:07.366Z,3643
2022-11-12T07:51:07.730Z,3603
2022-11-12T07:54:07.431Z,3693
2022-11-12T07:57:07.390Z,3883
2022-11-12T08:00:07.516Z,3873
2022-11-12T08:03:07.453Z,3843
2022-11-12T08:06:07.407Z,3963
2022-11-12T08:09:07.351Z,4093
2022-11-12T08:12:07.685Z,4320
2022-11-12T08:15:07.409Z,4653
2022-11-12T08:18:07.411Z,4933
2022-11-12T08:21:07.364Z,5133
2022-11-12T08:24:07.379Z,5363
2022-11-12T08:27:07.325Z,5880
2022-11-12T08:30:07.460Z,6740
2022-11-12T08:33:07.727Z,7687
2022-11-12T08:36:07.434Z,14620
2022-11-12T08:39:07.393Z,10097
2022-11-12T08:42:07.423Z,10527
2022-11-12T08:45:07.415Z,19740
2022-11-12T08:48:07.515Z,21683
2022-11-12T08:51:07.400Z,11947
2022-11-12T08:54:07.420Z,12547
2022-11-12T08:57:07.430Z,11880
2022-11-12T09:00:07.449Z,12160
2022-11-12T09:03:07.425Z,11903
2022-11-12T09:06:07.456Z,11623
2022-11-12T09:09:07.378Z,11527
2022-11-12T09:12:24.050Z,11823
2022-11-12T09:15:44.507Z,12237
2022-11-12T09:18:07.408Z,12463
2022-11-12T09:21:07.386Z,12747
2022-11-12T09:24:07.491Z,13677
2022-11-12T09:27:07.388Z,14457
2022-11-12T09:30:07.534Z,14903
2022-11-12T09:33:07.492Z,14523
2022-11-12T09:36:07.444Z,13760
2022-11-12T09:39:07.338Z,13177
2022-11-12T09:42:09.067Z,12677
2022-11-12T09:45:07.440Z,12417
2022-11-12T09:48:07.447Z,12337
2022-11-12T09:51:07.438Z,12190
2022-11-12T09:54:07.410Z,12020
2022-11-12T09:57:07.354Z,11897
2022-11-12T10:00:07.512Z,11883
2022-11-12T10:03:07.476Z,11970
2022-11-12T10:06:16.892Z,12097
2022-11-12T10:09:07.353Z,12227
2022-11-12T10:12:11.309Z,12440
2022-11-12T10:15:07.415Z,12807
2022-11-12T10:18:07.436Z,13173
2022-11-12T10:21:07.432Z,13467
2022-11-12T10:24:07.616Z,13793
2022-11-12T10:27:07.422Z,14140
2022-11-12T10:30:07.502Z,14507
2022-11-12T10:33:07.352Z,14730
2022-11-12T10:36:07.562Z,14677
2022-11-12T10:39:07.399Z,14467
2022-11-12T10:42:07.464Z,14120
2022-11-12T10:45:07.469Z,13787
2022-11-12T10:48:07.486Z,13530
2022-11-12T10:51:07.387Z,13423
2022-11-12T10:54:07.505Z,13593
2022-11-12T10:57:07.427Z,13877
2022-11-12T11:00:07.551Z,14063
2022-11-12T11:03:07.496Z,14103
2022-11-12T11:06:07.455Z,14103
2022-11-12T11:09:07.527Z,14213
2022-11-12T11:12:07.416Z,14437
2022-11-12T11:15:07.535Z,14630
2022-11-12T11:18:07.399Z,14890
2022-11-12T11:21:07.828Z,15263
2022-11-12T11:24:07.361Z,15630
2022-11-12T11:27:07.514Z,15997
2022-11-12T11:30:07.458Z,16320
2022-11-12T11:33:07.348Z,17600
2022-11-12T11:36:07.404Z,23180
2022-11-12T11:39:07.408Z,18443
2022-11-12T11:42:07.420Z,20277
2022-11-12T11:45:07.453Z,19223
2022-11-12T11:48:09.411Z,18793
2022-11-12T11:51:07.392Z,18163
2022-11-12T11:54:07.460Z,18437
2022-11-12T11:57:07.367Z,19727
2022-11-12T12:00:07.567Z,20123
2022-11-12T12:03:07.940Z,17367
2022-11-12T12:06:07.409Z,26530
2022-11-12T12:09:07.413Z,17457
2022-11-12T12:12:07.400Z,18220
2022-11-12T12:15:07.495Z,11853
2022-11-12T12:18:07.387Z,10370
2022-11-12T12:21:07.339Z,9600
2022-11-12T12:24:07.418Z,8650
2022-11-12T12:27:07.501Z,7887
2022-11-12T12:30:07.576Z,7453
2022-11-12T12:33:07.414Z,7210
2022-11-12T12:36:07.459Z,7203
2022-11-12T12:39:07.397Z,7253
2022-11-12T12:42:07.407Z,7207
2022-11-12T12:45:07.412Z,7150
2022-11-12T12:48:07.529Z,6907
2022-11-12T12:51:07.372Z,6727
2022-11-12T12:54:07.394Z,6503
2022-11-12T12:57:07.428Z,6763
2022-11-12T13:00:10.217Z,6857
2022-11-12T13:03:07.387Z,7083
2022-11-12T13:06:07.417Z,7223
2022-11-12T13:09:07.381Z,9270
2022-11-12T13:12:07.455Z,12767
2022-11-12T13:15:07.465Z,12040
2022-11-12T13:18:08.142Z,12327
2022-11-12T13:21:07.437Z,13317
2022-11-12T13:24:07.657Z,15027
2022-11-12T13:27:07.430Z,15073
2022-11-12T13:30:07.768Z,13400
2022-11-12T13:33:13.970Z,10560
2022-11-12T13:36:07.329Z,10217
2022-11-12T13:39:15.191Z,10420
2022-11-12T13:42:07.422Z,10133
2022-11-12T13:45:07.385Z,7910
2022-11-12T13:48:07.366Z,7030
2022-11-12T13:51:07.456Z,6327
2022-11-12T13:54:07.522Z,6363
2022-11-12T13:57:14.143Z,6493
2022-11-12T14:00:07.657Z,6670
2022-11-12T14:03:07.432Z,6377
2022-11-12T14:06:07.431Z,5820
2022-11-12T14:09:07.374Z,5683
2022-11-12T14:12:07.410Z,5803
2022-11-12T14:15:07.469Z,5613
2022-11-12T14:18:07.385Z,4960
2022-11-12T14:21:07.418Z,4890
2022-11-12T14:24:07.425Z,4657
2022-11-12T14:27:07.475Z,4480
2022-11-12T14:30:07.464Z,4037
2022-11-12T14:33:07.412Z,3707
2022-11-12T14:36:07.589Z,3417
2022-11-12T14:39:07.384Z,3167
2022-11-12T14:42:07.446Z,2953
2022-11-12T14:45:07.499Z,2737
2022-11-12T14:48:07.548Z,2550
2022-11-12T14:51:07.474Z,2357
2022-11-12T14:54:07.396Z,2200
2022-11-12T14:57:07.341Z,2010
2022-11-12T15:00:07.619Z,1820
2022-11-12T15:03:07.912Z,1633
2022-11-12T15:06:07.470Z,1440
2022-11-12T15:09:07.423Z,1243
2022-11-12T15:12:07.425Z,1057
2022-11-12T15:15:07.440Z,877
2022-11-12T15:18:07.362Z,717
2022-11-12T15:21:07.416Z,580
2022-11-12T15:24:07.595Z,460
2022-11-12T15:27:07.387Z,363
2022-11-12T15:30:07.563Z,283
2022-11-12T15:33:07.689Z,220
2022-11-12T15:36:07.346Z,167
2022-11-12T15:39:07.344Z,123
2022-11-12T15:42:07.372Z,90
2022-11-12T15:45:07.328Z,63
2022-11-12T15:48:07.388Z,43
2022-11-12T15:51:07.406Z,30
2022-11-12T15:54:07.347Z,17
2022-11-12T15:57:07.318Z,10
2022-11-12T16:00:15.305Z,7
2022-11-12T16:03:07.334Z,3
2022-11-12T16:06:15.903Z,3
2022-11-12T16:09:07.302Z,0
2022-11-12T16:12:07.425Z,0
2022-11-12T16:15:07.316Z,0
2022-11-12T16:18:07.305Z,0
2022-11-12T16:21:07.392Z,0
2022-11-12T16:24:07.292Z,0
2022-11-12T16:27:07.375Z,0
2022-11-12T16:30:07.396Z,0
2022-11-12T16:33:07.370Z,0
2022-11-12T16:36:07.339Z,0
2022-11-12T16:39:07.392Z,0
2022-11-12T16:42:07.412Z,0
2022-11-12T16:45:07.367Z,0
2022-11-12T16:48:07.444Z,0
2022-11-12T16:51:07.388Z,0
2022-11-12T16:54:07.406Z,0
2022-11-12T16:57:07.282Z,0
2022-11-12T17:00:07.418Z,0
2022-11-12T17:03:07.414Z,0
2022-11-12T17:06:07.414Z,0
2022-11-12T17:09:07.352Z,0
2022-11-12T17:12:07.375Z,0
2022-11-12T17:15:07.416Z,0
2022-11-12T17:18:07.332Z,0
2022-11-12T17:21:07.340Z,0
2022-11-12T17:24:07.289Z,0
2022-11-12T17:27:07.315Z,0
2022-11-12T17:30:07.392Z,0
2022-11-12T17:33:07.413Z,0
2022-11-12T17:36:07.396Z,0
2022-11-12T17:39:07.375Z,0
2022-11-12T17:42:07.359Z,0
2022-11-12T17:45:07.446Z,0
2022-11-12T17:48:07.394Z,0
2022-11-12T17:51:07.874Z,0
2022-11-12T17:54:07.330Z,0
2022-11-12T17:57:07.343Z,0
2022-11-12T18:00:07.360Z,0
2022-11-12T18:03:07.343Z,0
2022-11-12T18:06:07.342Z,0
2022-11-12T18:09:07.381Z,0
2022-11-12T18:12:07.326Z,0
2022-11-12T18:15:07.333Z,0
2022-11-12T18:18:07.430Z,0
2022-11-12T18:21:07.313Z,0
2022-11-12T18:24:07.341Z,0
2022-11-12T18:27:07.331Z,0
2022-11-12T18:30:07.395Z,0
2022-11-12T18:33:07.332Z,0
2022-11-12T18:36:07.342Z,0
2022-11-12T18:39:07.334Z,0
2022-11-12T18:42:07.302Z,0
2022-11-12T18:45:07.411Z,0
2022-11-12T18:48:07.345Z,0
2022-11-12T18:51:07.362Z,0
2022-11-12T18:54:07.501Z,0
2022-11-12T18:57:07.431Z,0
2022-11-12T19:00:07.435Z,0
2022-11-12T19:03:07.345Z,0
2022-11-12T19:06:07.404Z,0
2022-11-12T19:09:07.429Z,0
2022-11-12T19:12:07.396Z,0
2022-11-12T19:15:07.309Z,0
2022-11-12T19:18:07.415Z,0
2022-11-12T19:21:07.334Z,0
2022-11-12T19:24:08.256Z,0
2022-11-12T19:27:07.359Z,0
2022-11-12T19:30:10.356Z,0
2022-11-12T19:33:07.383Z,0
2022-11-12T19:36:13.678Z,0
2022-11-12T19:39:07.327Z,0
2022-11-12T19:42:07.323Z,0
2022-11-12T19:45:07.346Z,0
2022-11-12T19:48:07.396Z,0
2022-11-12T19:51:07.333Z,0
2022-11-12T19:54:07.327Z,0
2022-11-12T19:57:07.406Z,0
2022-11-12T20:00:07.362Z,0
2022-11-12T20:03:07.314Z,0
2022-11-12T20:06:07.420Z,0
2022-11-12T20:09:07.379Z,0
2022-11-12T20:12:07.365Z,0
2022-11-12T20:15:07.361Z,0
2022-11-12T20:18:07.403Z,0
2022-11-12T20:21:07.339Z,0
2022-11-12T20:24:07.356Z,0
2022-11-12T20:27:08.261Z,0
2022-11-12T20:30:07.387Z,0
2022-11-12T20:33:07.350Z,0
2022-11-12T20:36:07.393Z,0
2022-11-12T20:39:07.349Z,0
2022-11-12T20:42:07.451Z,0
2022-11-12T20:45:07.403Z,0
2022-11-12T20:48:07.368Z,0
2022-11-12T20:51:30.959Z,0
2022-11-12T20:54:07.844Z,0
2022-11-12T20:57:07.383Z,0
2022-11-12T21:00:09.660Z,0
2022-11-12T21:03:07.393Z,0
2022-11-12T21:06:07.368Z,0
2022-11-12T21:09:07.366Z,0
2022-11-12T21:12:07.316Z,0
2022-11-12T21:15:07.382Z,0
2022-11-12T21:18:07.276Z,0
2022-11-12T21:21:07.499Z,0
2022-11-12T21:24:12.009Z,0
2022-11-12T21:27:07.391Z,0
2022-11-12T21:30:07.391Z,0
2022-11-12T21:33:07.381Z,0
2022-11-12T21:36:10.597Z,0
2022-11-12T21:39:07.350Z,0
2022-11-12T21:42:07.373Z,0
2022-11-12T21:45:07.418Z,0
2022-11-12T21:48:07.389Z,0
2022-11-12T21:51:07.311Z,0
2022-11-12T21:54:07.376Z,0
2022-11-12T21:57:07.350Z,0
2022-11-12T22:00:48.133Z,0
2022-11-12T22:03:07.458Z,0
2022-11-12T22:06:07.355Z,0
2022-11-12T22:09:07.455Z,0
2022-11-12T22:12:07.326Z,0
2022-11-12T22:15:07.315Z,0
2022-11-12T22:18:07.350Z,0
2022-11-12T22:21:07.332Z,0
2022-11-12T22:24:07.424Z,0
2022-11-12T22:27:12.439Z,0
2022-11-12T22:30:07.364Z,0
2022-11-12T22:33:07.382Z,0
2022-11-12T22:36:07.376Z,0
2022-11-12T22:39:07.353Z,0
2022-11-12T22:42:07.399Z,0
2022-11-12T22:45:07.369Z,0
2022-11-12T22:48:07.402Z,0
2022-11-12T22:51:07.650Z,0
2022-11-12T22:54:07.421Z,0
2022-11-12T22:57:07.299Z,0
2022-11-12T23:00:07.804Z,0
2022-11-12T23:03:07.347Z,0
2022-11-12T23:06:07.415Z,0
2022-11-12T23:09:07.342Z,0
2022-11-12T23:12:07.447Z,0
2022-11-12T23:15:07.475Z,0
2022-11-12T23:18:07.433Z,0
2022-11-12T23:21:07.315Z,0
2022-11-12T23:24:07.425Z,0
2022-11-12T23:27:07.310Z,0
2022-11-12T23:30:07.360Z,0
2022-11-12T23:33:07.468Z,0
2022-11-12T23:36:07.343Z,0
2022-11-12T23:39:07.287Z,0
2022-11-12T23:42:07.354Z,0
2022-11-12T23:45:07.377Z,0
2022-11-12T23:48:07.390Z,0
2022-11-12T23:51:07.375Z,0
2022-11-12T23:54:07.316Z,0
2022-11-12T23:57:07.329Z,0
